sensor_id;sensor_type;location;lat;lon;timestamp;P1;durP1;ratioP1;P2;durP2;ratioP2
26223;SDS011;14820;48.682;8.890;2022-12-29T00:00:08;3.13;;;1.80;;
26223;SDS011;14820;48.682;8.890;2022-12-29T00:02:35;4.72;;;1.90;;
26223;SDS011;14820;48.682;8.890;2022-12-29T00:05:01;6.35;;;2.25;;
26223;SDS011;14820;48.682;8.890;2022-12-29T00:07:27;2.95;;;1.95;;
26223;SDS011;14820;48.682;8.890;2022-12-29T00:09:53;5.78;;;1.98;;
26223;SDS011;14820;48.682;8.890;2022-12-29T00:12:18;6.35;;;1.60;;
26223;SDS011;14820;48.682;8.890;2022-12-29T00:14:44;4.13;;;1.70;;
26223;SDS011;14820;48.682;8.890;2022-12-29T00:17:28;2.90;;;1.88;;
26223;SDS011;14820;48.682;8.890;2022-12-29T00:22:55;5.25;;;2.22;;
26223;SDS011;14820;48.682;8.890;2022-12-29T00:25:41;4.60;;;1.80;;
26223;SDS011;14820;48.682;8.890;2022-12-29T00:28:28;3.58;;;1.98;;
26223;SDS011;14820;48.682;8.890;2022-12-29T00:31:12;3.25;;;1.40;;
26223;SDS011;14820;48.682;8.890;2022-12-29T00:33:56;3.78;;;1.80;;
26223;SDS011;14820;48.682;8.890;2022-12-29T00:36:41;4.45;;;2.00;;
26223;SDS011;14820;48.682;8.890;2022-12-29T00:39:13;5.15;;;1.75;;
26223;SDS011;14820;48.682;8.890;2022-12-29T00:42:07;1.65;;;1.50;;
26223;SDS011;14820;48.682;8.890;2022-12-29T00:44:51;3.25;;;1.67;;
26223;SDS011;14820;48.682;8.890;2022-12-29T00:47:17;4.15;;;1.73;;
26223;SDS011;14820;48.682;8.890;2022-12-29T00:49:43;3.95;;;1.58;;
26223;SDS011;14820;48.682;8.890;2022-12-29T00:52:11;4.32;;;1.70;;
26223;SDS011;14820;48.682;8.890;2022-12-29T00:54:38;3.47;;;1.63;;
26223;SDS011;14820;48.682;8.890;2022-12-29T00:57:06;6.07;;;1.45;;
26223;SDS011;14820;48.682;8.890;2022-12-29T00:59:36;2.67;;;1.45;;
26223;SDS011;14820;48.682;8.890;2022-12-29T01:02:04;5.28;;;1.45;;
26223;SDS011;14820;48.682;8.890;2022-12-29T01:04:30;3.38;;;1.65;;
26223;SDS011;14820;48.682;8.890;2022-12-29T01:06:55;4.03;;;1.60;;
26223;SDS011;14820;48.682;8.890;2022-12-29T01:09:22;3.60;;;1.75;;
26223;SDS011;14820;48.682;8.890;2022-12-29T01:12:07;3.05;;;1.55;;
26223;SDS011;14820;48.682;8.890;2022-12-29T01:14:34;3.83;;;1.40;;
26223;SDS011;14820;48.682;8.890;2022-12-29T01:17:01;2.05;;;1.60;;
26223;SDS011;14820;48.682;8.890;2022-12-29T01:19:26;5.68;;;1.38;;
26223;SDS011;14820;48.682;8.890;2022-12-29T01:21:52;3.72;;;1.50;;
26223;SDS011;14820;48.682;8.890;2022-12-29T01:24:19;2.45;;;1.42;;
26223;SDS011;14820;48.682;8.890;2022-12-29T01:26:45;2.65;;;1.50;;
26223;SDS011;14820;48.682;8.890;2022-12-29T01:29:11;6.97;;;1.40;;
26223;SDS011;14820;48.682;8.890;2022-12-29T01:31:43;2.22;;;1.58;;
26223;SDS011;14820;48.682;8.890;2022-12-29T01:34:09;3.65;;;1.88;;
26223;SDS011;14820;48.682;8.890;2022-12-29T01:36:35;4.38;;;1.80;;
26223;SDS011;14820;48.682;8.890;2022-12-29T01:39:00;2.92;;;1.55;;
26223;SDS011;14820;48.682;8.890;2022-12-29T01:41:26;2.53;;;1.40;;
26223;SDS011;14820;48.682;8.890;2022-12-29T01:43:53;4.75;;;1.50;;
26223;SDS011;14820;48.682;8.890;2022-12-29T01:46:31;3.67;;;1.70;;
26223;SDS011;14820;48.682;8.890;2022-12-29T01:51:34;5.27;;;1.70;;
26223;SDS011;14820;48.682;8.890;2022-12-29T01:54:10;2.53;;;1.33;;
26223;SDS011;14820;48.682;8.890;2022-12-29T01:56:50;3.92;;;1.48;;
26223;SDS011;14820;48.682;8.890;2022-12-29T01:59:18;3.83;;;1.63;;
26223;SDS011;14820;48.682;8.890;2022-12-29T02:01:54;5.47;;;1.75;;
26223;SDS011;14820;48.682;8.890;2022-12-29T02:04:20;3.20;;;1.60;;
26223;SDS011;14820;48.682;8.890;2022-12-29T02:06:53;2.88;;;1.40;;
26223;SDS011;14820;48.682;8.890;2022-12-29T02:09:23;3.75;;;1.35;;
26223;SDS011;14820;48.682;8.890;2022-12-29T02:11:49;2.65;;;1.40;;
26223;SDS011;14820;48.682;8.890;2022-12-29T02:14:14;3.15;;;1.63;;
26223;SDS011;14820;48.682;8.890;2022-12-29T02:28:09;2.95;;;1.38;;
26223;SDS011;14820;48.682;8.890;2022-12-29T02:44:11;6.20;;;1.13;;
26223;SDS011;14820;48.682;8.890;2022-12-29T02:46:43;3.28;;;1.30;;
26223;SDS011;14820;48.682;8.890;2022-12-29T02:49:15;6.05;;;1.30;;
26223;SDS011;14820;48.682;8.890;2022-12-29T02:52:07;2.95;;;1.35;;
26223;SDS011;14820;48.682;8.890;2022-12-29T02:54:40;5.65;;;1.45;;
26223;SDS011;14820;48.682;8.890;2022-12-29T02:59:47;3.95;;;1.40;;
26223;SDS011;14820;48.682;8.890;2022-12-29T03:10:24;1.90;;;1.20;;
26223;SDS011;14820;48.682;8.890;2022-12-29T03:18:58;3.13;;;1.13;;
26223;SDS011;14820;48.682;8.890;2022-12-29T03:21:31;2.05;;;1.10;;
26223;SDS011;14820;48.682;8.890;2022-12-29T03:24:19;4.30;;;1.35;;
26223;SDS011;14820;48.682;8.890;2022-12-29T03:26:48;3.33;;;1.20;;
26223;SDS011;14820;48.682;8.890;2022-12-29T03:29:16;3.45;;;1.60;;
26223;SDS011;14820;48.682;8.890;2022-12-29T03:31:43;2.42;;;1.20;;
26223;SDS011;14820;48.682;8.890;2022-12-29T03:34:10;1.40;;;1.20;;
26223;SDS011;14820;48.682;8.890;2022-12-29T03:36:49;6.53;;;1.20;;
26223;SDS011;14820;48.682;8.890;2022-12-29T03:41:50;2.17;;;1.17;;
26223;SDS011;14820;48.682;8.890;2022-12-29T03:44:30;2.13;;;1.10;;
26223;SDS011;14820;48.682;8.890;2022-12-29T03:46:57;1.77;;;1.10;;
26223;SDS011;14820;48.682;8.890;2022-12-29T03:49:22;3.28;;;1.15;;
26223;SDS011;14820;48.682;8.890;2022-12-29T03:51:48;2.72;;;1.35;;
26223;SDS011;14820;48.682;8.890;2022-12-29T03:54:14;3.33;;;1.10;;
26223;SDS011;14820;48.682;8.890;2022-12-29T03:56:40;3.63;;;1.30;;
26223;SDS011;14820;48.682;8.890;2022-12-29T03:59:06;3.63;;;1.38;;
26223;SDS011;14820;48.682;8.890;2022-12-29T04:01:32;4.30;;;1.35;;
26223;SDS011;14820;48.682;8.890;2022-12-29T04:03:57;2.35;;;1.30;;
26223;SDS011;14820;48.682;8.890;2022-12-29T04:06:23;3.25;;;1.30;;
26223;SDS011;14820;48.682;8.890;2022-12-29T04:08:49;6.78;;;1.40;;
26223;SDS011;14820;48.682;8.890;2022-12-29T04:11:14;2.35;;;1.30;;
26223;SDS011;14820;48.682;8.890;2022-12-29T04:13:40;2.92;;;1.27;;
26223;SDS011;14820;48.682;8.890;2022-12-29T04:16:06;2.83;;;1.30;;
26223;SDS011;14820;48.682;8.890;2022-12-29T04:18:32;4.05;;;1.88;;
26223;SDS011;14820;48.682;8.890;2022-12-29T04:20:57;5.65;;;1.30;;
26223;SDS011;14820;48.682;8.890;2022-12-29T04:23:27;2.30;;;1.10;;
26223;SDS011;14820;48.682;8.890;2022-12-29T04:25:55;1.88;;;1.35;;
26223;SDS011;14820;48.682;8.890;2022-12-29T04:28:20;1.85;;;1.25;;
26223;SDS011;14820;48.682;8.890;2022-12-29T04:30:46;2.67;;;1.35;;
26223;SDS011;14820;48.682;8.890;2022-12-29T04:33:12;2.33;;;1.15;;
26223;SDS011;14820;48.682;8.890;2022-12-29T04:35:39;3.13;;;1.58;;
26223;SDS011;14820;48.682;8.890;2022-12-29T04:38:04;5.20;;;1.52;;
26223;SDS011;14820;48.682;8.890;2022-12-29T04:40:30;3.47;;;1.40;;
26223;SDS011;14820;48.682;8.890;2022-12-29T04:42:56;2.75;;;1.50;;
26223;SDS011;14820;48.682;8.890;2022-12-29T04:45:22;3.50;;;1.58;;
26223;SDS011;14820;48.682;8.890;2022-12-29T04:47:48;7.05;;;1.92;;
26223;SDS011;14820;48.682;8.890;2022-12-29T04:50:14;1.60;;;1.15;;
26223;SDS011;14820;48.682;8.890;2022-12-29T04:52:42;2.65;;;1.58;;
26223;SDS011;14820;48.682;8.890;2022-12-29T04:55:09;3.63;;;1.73;;
26223;SDS011;14820;48.682;8.890;2022-12-29T04:57:35;4.70;;;1.90;;
26223;SDS011;14820;48.682;8.890;2022-12-29T05:00:00;3.38;;;1.80;;
26223;SDS011;14820;48.682;8.890;2022-12-29T05:02:26;3.60;;;1.70;;
26223;SDS011;14820;48.682;8.890;2022-12-29T05:04:55;3.83;;;1.80;;
26223;SDS011;14820;48.682;8.890;2022-12-29T05:07:21;3.67;;;1.95;;
26223;SDS011;14820;48.682;8.890;2022-12-29T05:09:46;2.72;;;1.80;;
26223;SDS011;14820;48.682;8.890;2022-12-29T05:12:12;3.25;;;1.88;;
26223;SDS011;14820;48.682;8.890;2022-12-29T05:14:44;3.00;;;1.85;;
26223;SDS011;14820;48.682;8.890;2022-12-29T05:17:10;2.97;;;1.70;;
26223;SDS011;14820;48.682;8.890;2022-12-29T05:19:35;4.03;;;1.60;;
26223;SDS011;14820;48.682;8.890;2022-12-29T05:22:03;6.88;;;1.90;;
26223;SDS011;14820;48.682;8.890;2022-12-29T05:24:29;4.72;;;1.55;;
26223;SDS011;14820;48.682;8.890;2022-12-29T05:26:54;3.38;;;1.65;;
26223;SDS011;14820;48.682;8.890;2022-12-29T05:29:20;6.18;;;1.75;;
26223;SDS011;14820;48.682;8.890;2022-12-29T05:31:46;4.05;;;1.80;;
26223;SDS011;14820;48.682;8.890;2022-12-29T05:34:11;4.35;;;1.70;;
26223;SDS011;14820;48.682;8.890;2022-12-29T05:36:37;3.50;;;1.70;;
26223;SDS011;14820;48.682;8.890;2022-12-29T05:39:05;5.25;;;2.00;;
26223;SDS011;14820;48.682;8.890;2022-12-29T05:41:32;2.58;;;1.80;;
26223;SDS011;14820;48.682;8.890;2022-12-29T05:43:59;2.67;;;1.65;;
26223;SDS011;14820;48.682;8.890;2022-12-29T05:46:25;4.13;;;1.80;;
26223;SDS011;14820;48.682;8.890;2022-12-29T05:48:51;2.88;;;1.45;;
26223;SDS011;14820;48.682;8.890;2022-12-29T05:51:16;1.98;;;1.40;;
26223;SDS011;14820;48.682;8.890;2022-12-29T05:53:42;3.85;;;1.58;;
26223;SDS011;14820;48.682;8.890;2022-12-29T05:56:08;4.75;;;1.80;;
26223;SDS011;14820;48.682;8.890;2022-12-29T05:58:33;3.83;;;1.77;;
26223;SDS011;14820;48.682;8.890;2022-12-29T06:00:59;2.70;;;1.75;;
26223;SDS011;14820;48.682;8.890;2022-12-29T06:03:25;3.58;;;1.70;;
26223;SDS011;14820;48.682;8.890;2022-12-29T06:05:51;4.45;;;1.70;;
26223;SDS011;14820;48.682;8.890;2022-12-29T06:08:16;3.47;;;1.67;;
26223;SDS011;14820;48.682;8.890;2022-12-29T06:10:42;5.75;;;1.90;;
26223;SDS011;14820;48.682;8.890;2022-12-29T06:13:08;2.65;;;1.73;;
26223;SDS011;14820;48.682;8.890;2022-12-29T06:15:34;3.55;;;1.50;;
26223;SDS011;14820;48.682;8.890;2022-12-29T06:20:35;2.45;;;1.50;;
26223;SDS011;14820;48.682;8.890;2022-12-29T06:23:00;2.95;;;1.45;;
26223;SDS011;14820;48.682;8.890;2022-12-29T06:25:26;3.63;;;1.85;;
26223;SDS011;14820;48.682;8.890;2022-12-29T06:27:53;4.00;;;1.80;;
26223;SDS011;14820;48.682;8.890;2022-12-29T06:30:19;3.65;;;1.65;;
26223;SDS011;14820;48.682;8.890;2022-12-29T06:32:47;2.88;;;1.55;;
26223;SDS011;14820;48.682;8.890;2022-12-29T06:35:13;2.00;;;1.40;;
26223;SDS011;14820;48.682;8.890;2022-12-29T06:37:39;3.28;;;1.60;;
26223;SDS011;14820;48.682;8.890;2022-12-29T06:40:05;3.05;;;1.75;;
26223;SDS011;14820;48.682;8.890;2022-12-29T06:42:31;3.33;;;1.60;;
26223;SDS011;14820;48.682;8.890;2022-12-29T06:44:57;2.67;;;1.50;;
26223;SDS011;14820;48.682;8.890;2022-12-29T06:47:25;2.75;;;1.65;;
26223;SDS011;14820;48.682;8.890;2022-12-29T06:49:51;4.40;;;2.00;;
26223;SDS011;14820;48.682;8.890;2022-12-29T06:52:17;2.40;;;1.55;;
26223;SDS011;14820;48.682;8.890;2022-12-29T06:54:42;4.22;;;1.80;;
26223;SDS011;14820;48.682;8.890;2022-12-29T06:57:08;2.83;;;1.90;;
26223;SDS011;14820;48.682;8.890;2022-12-29T06:59:34;3.22;;;1.75;;
26223;SDS011;14820;48.682;8.890;2022-12-29T07:01:59;7.13;;;1.73;;
26223;SDS011;14820;48.682;8.890;2022-12-29T07:04:27;3.88;;;1.63;;
26223;SDS011;14820;48.682;8.890;2022-12-29T07:06:53;4.32;;;1.75;;
26223;SDS011;14820;48.682;8.890;2022-12-29T07:09:19;7.55;;;1.90;;
26223;SDS011;14820;48.682;8.890;2022-12-29T07:11:45;2.50;;;1.58;;
26223;SDS011;14820;48.682;8.890;2022-12-29T07:14:11;3.65;;;1.98;;
26223;SDS011;14820;48.682;8.890;2022-12-29T07:16:37;2.33;;;1.35;;
26223;SDS011;14820;48.682;8.890;2022-12-29T07:19:03;2.90;;;1.60;;
26223;SDS011;14820;48.682;8.890;2022-12-29T07:21:29;7.35;;;1.85;;
26223;SDS011;14820;48.682;8.890;2022-12-29T07:23:55;4.20;;;1.85;;
26223;SDS011;14820;48.682;8.890;2022-12-29T07:26:20;3.70;;;1.60;;
26223;SDS011;14820;48.682;8.890;2022-12-29T07:28:48;4.53;;;1.80;;
26223;SDS011;14820;48.682;8.890;2022-12-29T07:31:14;2.47;;;1.58;;
26223;SDS011;14820;48.682;8.890;2022-12-29T07:33:45;4.20;;;1.75;;
26223;SDS011;14820;48.682;8.890;2022-12-29T07:36:11;2.58;;;1.60;;
26223;SDS011;14820;48.682;8.890;2022-12-29T07:38:37;3.63;;;1.50;;
26223;SDS011;14820;48.682;8.890;2022-12-29T07:41:03;2.05;;;1.35;;
26223;SDS011;14820;48.682;8.890;2022-12-29T07:43:29;2.78;;;1.48;;
26223;SDS011;14820;48.682;8.890;2022-12-29T07:45:55;4.47;;;1.65;;
26223;SDS011;14820;48.682;8.890;2022-12-29T07:48:21;2.03;;;1.40;;
26223;SDS011;14820;48.682;8.890;2022-12-29T07:50:47;4.90;;;1.55;;
26223;SDS011;14820;48.682;8.890;2022-12-29T07:53:13;8.45;;;1.60;;
26223;SDS011;14820;48.682;8.890;2022-12-29T07:55:39;3.08;;;1.67;;
26223;SDS011;14820;48.682;8.890;2022-12-29T07:58:05;3.42;;;1.77;;
26223;SDS011;14820;48.682;8.890;2022-12-29T08:00:31;3.53;;;1.50;;
26223;SDS011;14820;48.682;8.890;2022-12-29T08:03:00;4.90;;;1.55;;
26223;SDS011;14820;48.682;8.890;2022-12-29T08:05:31;3.83;;;1.70;;
26223;SDS011;14820;48.682;8.890;2022-12-29T08:08:06;4.13;;;1.42;;
26223;SDS011;14820;48.682;8.890;2022-12-29T08:10:32;3.88;;;1.30;;
26223;SDS011;14820;48.682;8.890;2022-12-29T08:13:06;3.25;;;1.25;;
26223;SDS011;14820;48.682;8.890;2022-12-29T08:15:34;4.18;;;1.42;;
26223;SDS011;14820;48.682;8.890;2022-12-29T08:17:59;3.53;;;1.92;;
26223;SDS011;14820;48.682;8.890;2022-12-29T08:20:26;2.30;;;1.27;;
26223;SDS011;14820;48.682;8.890;2022-12-29T08:22:52;1.98;;;1.40;;
26223;SDS011;14820;48.682;8.890;2022-12-29T08:25:17;2.75;;;1.30;;
26223;SDS011;14820;48.682;8.890;2022-12-29T08:27:44;4.43;;;1.55;;
26223;SDS011;14820;48.682;8.890;2022-12-29T08:30:10;3.80;;;1.48;;
26223;SDS011;14820;48.682;8.890;2022-12-29T08:32:36;1.52;;;1.27;;
26223;SDS011;14820;48.682;8.890;2022-12-29T08:35:09;3.35;;;1.50;;
26223;SDS011;14820;48.682;8.890;2022-12-29T08:37:43;5.78;;;1.58;;
26223;SDS011;14820;48.682;8.890;2022-12-29T08:40:12;5.38;;;2.05;;
26223;SDS011;14820;48.682;8.890;2022-12-29T08:42:45;4.00;;;1.50;;
26223;SDS011;14820;48.682;8.890;2022-12-29T08:45:18;3.50;;;1.45;;
26223;SDS011;14820;48.682;8.890;2022-12-29T08:47:44;2.47;;;1.25;;
26223;SDS011;14820;48.682;8.890;2022-12-29T08:50:10;2.67;;;1.60;;
26223;SDS011;14820;48.682;8.890;2022-12-29T08:52:37;3.00;;;1.63;;
26223;SDS011;14820;48.682;8.890;2022-12-29T08:55:03;2.85;;;1.48;;
26223;SDS011;14820;48.682;8.890;2022-12-29T08:57:29;3.97;;;1.40;;
26223;SDS011;14820;48.682;8.890;2022-12-29T08:59:54;2.65;;;1.40;;
26223;SDS011;14820;48.682;8.890;2022-12-29T09:02:20;4.25;;;1.40;;
26223;SDS011;14820;48.682;8.890;2022-12-29T09:04:46;4.78;;;1.48;;
26223;SDS011;14820;48.682;8.890;2022-12-29T09:07:11;3.83;;;1.63;;
26223;SDS011;14820;48.682;8.890;2022-12-29T09:09:37;2.38;;;1.50;;
26223;SDS011;14820;48.682;8.890;2022-12-29T09:12:03;4.28;;;1.40;;
26223;SDS011;14820;48.682;8.890;2022-12-29T09:14:29;4.40;;;1.50;;
26223;SDS011;14820;48.682;8.890;2022-12-29T09:16:54;2.45;;;1.40;;
26223;SDS011;14820;48.682;8.890;2022-12-29T09:19:39;4.45;;;1.63;;
26223;SDS011;14820;48.682;8.890;2022-12-29T09:22:04;5.70;;;1.55;;
26223;SDS011;14820;48.682;8.890;2022-12-29T09:24:30;2.88;;;1.45;;
26223;SDS011;14820;48.682;8.890;2022-12-29T09:26:56;5.22;;;1.75;;
26223;SDS011;14820;48.682;8.890;2022-12-29T09:29:21;4.80;;;1.90;;
26223;SDS011;14820;48.682;8.890;2022-12-29T09:31:47;4.07;;;1.65;;
26223;SDS011;14820;48.682;8.890;2022-12-29T09:34:13;1.92;;;1.45;;
26223;SDS011;14820;48.682;8.890;2022-12-29T09:36:38;2.33;;;1.40;;
26223;SDS011;14820;48.682;8.890;2022-12-29T09:39:04;3.22;;;1.80;;
26223;SDS011;14820;48.682;8.890;2022-12-29T09:41:32;4.80;;;2.20;;
26223;SDS011;14820;48.682;8.890;2022-12-29T09:47:26;3.83;;;1.50;;
26223;SDS011;14820;48.682;8.890;2022-12-29T09:49:54;2.05;;;1.40;;
26223;SDS011;14820;48.682;8.890;2022-12-29T09:52:28;3.22;;;1.50;;
26223;SDS011;14820;48.682;8.890;2022-12-29T09:54:58;5.32;;;1.60;;
26223;SDS011;14820;48.682;8.890;2022-12-29T09:57:38;1.92;;;1.40;;
26223;SDS011;14820;48.682;8.890;2022-12-29T10:00:20;4.15;;;1.55;;
26223;SDS011;14820;48.682;8.890;2022-12-29T10:02:58;2.50;;;1.27;;
26223;SDS011;14820;48.682;8.890;2022-12-29T10:11:04;3.22;;;2.13;;
26223;SDS011;14820;48.682;8.890;2022-12-29T10:13:51;6.28;;;2.95;;
26223;SDS011;14820;48.682;8.890;2022-12-29T10:24:57;13.40;;;6.40;;
26223;SDS011;14820;48.682;8.890;2022-12-29T10:27:27;3.20;;;2.30;;
26223;SDS011;14820;48.682;8.890;2022-12-29T10:29:56;5.85;;;2.38;;
26223;SDS011;14820;48.682;8.890;2022-12-29T10:32:26;2.85;;;1.73;;
26223;SDS011;14820;48.682;8.890;2022-12-29T10:35:05;4.25;;;1.58;;
26223;SDS011;14820;48.682;8.890;2022-12-29T10:40:14;6.53;;;2.35;;
26223;SDS011;14820;48.682;8.890;2022-12-29T10:42:55;3.35;;;1.98;;
26223;SDS011;14820;48.682;8.890;2022-12-29T10:45:23;3.92;;;1.20;;
26223;SDS011;14820;48.682;8.890;2022-12-29T10:48:02;4.13;;;1.83;;
26223;SDS011;14820;48.682;8.890;2022-12-29T10:50:30;4.43;;;1.77;;
26223;SDS011;14820;48.682;8.890;2022-12-29T10:52:58;4.22;;;2.30;;
26223;SDS011;14820;48.682;8.890;2022-12-29T10:55:34;4.43;;;1.80;;
26223;SDS011;14820;48.682;8.890;2022-12-29T10:58:04;4.03;;;2.00;;
26223;SDS011;14820;48.682;8.890;2022-12-29T11:00:32;3.90;;;1.67;;
26223;SDS011;14820;48.682;8.890;2022-12-29T11:08:10;6.30;;;1.88;;
26223;SDS011;14820;48.682;8.890;2022-12-29T11:10:40;3.67;;;1.42;;
26223;SDS011;14820;48.682;8.890;2022-12-29T11:13:17;9.38;;;3.13;;
26223;SDS011;14820;48.682;8.890;2022-12-29T11:15:50;12.15;;;3.80;;
26223;SDS011;14820;48.682;8.890;2022-12-29T11:20:58;5.93;;;2.15;;
26223;SDS011;14820;48.682;8.890;2022-12-29T11:26:14;7.25;;;2.25;;
26223;SDS011;14820;48.682;8.890;2022-12-29T11:28:42;4.60;;;2.55;;
26223;SDS011;14820;48.682;8.890;2022-12-29T11:31:09;4.25;;;2.70;;
26223;SDS011;14820;48.682;8.890;2022-12-29T11:33:40;4.78;;;2.55;;
26223;SDS011;14820;48.682;8.890;2022-12-29T11:36:20;5.03;;;2.40;;
26223;SDS011;14820;48.682;8.890;2022-12-29T11:38:49;3.65;;;2.15;;
26223;SDS011;14820;48.682;8.890;2022-12-29T11:41:23;4.97;;;3.00;;
26223;SDS011;14820;48.682;8.890;2022-12-29T11:44:02;4.85;;;2.25;;
26223;SDS011;14820;48.682;8.890;2022-12-29T11:46:34;3.05;;;1.63;;
26223;SDS011;14820;48.682;8.890;2022-12-29T11:49:02;2.45;;;1.60;;
26223;SDS011;14820;48.682;8.890;2022-12-29T11:51:30;2.53;;;1.40;;
26223;SDS011;14820;48.682;8.890;2022-12-29T11:54:09;2.70;;;1.50;;
26223;SDS011;14820;48.682;8.890;2022-12-29T11:56:47;4.40;;;1.20;;
26223;SDS011;14820;48.682;8.890;2022-12-29T12:01:52;2.63;;;1.48;;
26223;SDS011;14820;48.682;8.890;2022-12-29T12:04:21;4.75;;;1.77;;
26223;SDS011;14820;48.682;8.890;2022-12-29T12:07:03;4.63;;;1.88;;
26223;SDS011;14820;48.682;8.890;2022-12-29T12:09:38;2.00;;;1.60;;
26223;SDS011;14820;48.682;8.890;2022-12-29T12:12:23;2.38;;;1.52;;
26223;SDS011;14820;48.682;8.890;2022-12-29T12:14:55;3.25;;;1.60;;
26223;SDS011;14820;48.682;8.890;2022-12-29T12:20:17;12.38;;;3.28;;
26223;SDS011;14820;48.682;8.890;2022-12-29T12:22:58;10.13;;;3.03;;
26223;SDS011;14820;48.682;8.890;2022-12-29T12:25:55;4.80;;;2.30;;
26223;SDS011;14820;48.682;8.890;2022-12-29T12:30:56;4.00;;;1.88;;
26223;SDS011;14820;48.682;8.890;2022-12-29T12:33:29;3.83;;;1.92;;
26223;SDS011;14820;48.682;8.890;2022-12-29T12:41:21;5.93;;;2.30;;
26223;SDS011;14820;48.682;8.890;2022-12-29T12:49:58;6.90;;;3.05;;
26223;SDS011;14820;48.682;8.890;2022-12-29T13:12:31;5.75;;;1.90;;
26223;SDS011;14820;48.682;8.890;2022-12-29T13:15:14;5.13;;;2.70;;
26223;SDS011;14820;48.682;8.890;2022-12-29T13:23:34;10.43;;;3.63;;
26223;SDS011;14820;48.682;8.890;2022-12-29T13:26:26;4.32;;;2.08;;
26223;SDS011;14820;48.682;8.890;2022-12-29T13:37:49;4.72;;;1.98;;
26223;SDS011;14820;48.682;8.890;2022-12-29T13:40:21;11.57;;;3.30;;
26223;SDS011;14820;48.682;8.890;2022-12-29T13:42:50;6.97;;;2.50;;
26223;SDS011;14820;48.682;8.890;2022-12-29T13:45:19;5.65;;;2.00;;
26223;SDS011;14820;48.682;8.890;2022-12-29T13:47:49;3.65;;;1.80;;
26223;SDS011;14820;48.682;8.890;2022-12-29T13:50:25;4.15;;;2.28;;
26223;SDS011;14820;48.682;8.890;2022-12-29T13:53:11;4.88;;;2.03;;
26223;SDS011;14820;48.682;8.890;2022-12-29T13:56:04;3.08;;;1.98;;
26223;SDS011;14820;48.682;8.890;2022-12-29T13:58:37;2.90;;;1.73;;
26223;SDS011;14820;48.682;8.890;2022-12-29T14:01:22;2.55;;;1.60;;
26223;SDS011;14820;48.682;8.890;2022-12-29T14:03:56;2.80;;;1.80;;
26223;SDS011;14820;48.682;8.890;2022-12-29T14:09:05;4.05;;;1.52;;
26223;SDS011;14820;48.682;8.890;2022-12-29T14:11:54;3.97;;;1.95;;
26223;SDS011;14820;48.682;8.890;2022-12-29T14:14:24;2.38;;;1.60;;
26223;SDS011;14820;48.682;8.890;2022-12-29T14:16:54;3.72;;;1.80;;
26223;SDS011;14820;48.682;8.890;2022-12-29T14:19:45;4.50;;;1.70;;
26223;SDS011;14820;48.682;8.890;2022-12-29T14:22:16;5.97;;;2.22;;
26223;SDS011;14820;48.682;8.890;2022-12-29T14:24:53;9.85;;;3.83;;
26223;SDS011;14820;48.682;8.890;2022-12-29T14:29:55;3.95;;;1.60;;
26223;SDS011;14820;48.682;8.890;2022-12-29T14:33:03;6.07;;;1.65;;
26223;SDS011;14820;48.682;8.890;2022-12-29T14:35:50;6.43;;;2.72;;
26223;SDS011;14820;48.682;8.890;2022-12-29T14:38:23;5.57;;;2.10;;
26223;SDS011;14820;48.682;8.890;2022-12-29T14:40:52;4.57;;;2.08;;
26223;SDS011;14820;48.682;8.890;2022-12-29T14:43:37;3.92;;;2.42;;
26223;SDS011;14820;48.682;8.890;2022-12-29T14:46:03;2.70;;;1.88;;
26223;SDS011;14820;48.682;8.890;2022-12-29T14:48:35;3.83;;;2.42;;
26223;SDS011;14820;48.682;8.890;2022-12-29T14:51:26;3.05;;;2.20;;
26223;SDS011;14820;48.682;8.890;2022-12-29T14:53:56;3.55;;;2.20;;
26223;SDS011;14820;48.682;8.890;2022-12-29T14:56:26;3.75;;;1.90;;
26223;SDS011;14820;48.682;8.890;2022-12-29T14:58:54;4.75;;;2.25;;
26223;SDS011;14820;48.682;8.890;2022-12-29T15:01:37;6.70;;;2.60;;
26223;SDS011;14820;48.682;8.890;2022-12-29T15:04:21;11.98;;;2.50;;
26223;SDS011;14820;48.682;8.890;2022-12-29T15:06:55;4.05;;;2.13;;
26223;SDS011;14820;48.682;8.890;2022-12-29T15:09:28;7.30;;;2.00;;
26223;SDS011;14820;48.682;8.890;2022-12-29T15:12:19;2.83;;;1.77;;
26223;SDS011;14820;48.682;8.890;2022-12-29T15:15:20;3.20;;;2.03;;
26223;SDS011;14820;48.682;8.890;2022-12-29T15:17:49;4.80;;;2.05;;
26223;SDS011;14820;48.682;8.890;2022-12-29T15:22:54;7.20;;;3.05;;
26223;SDS011;14820;48.682;8.890;2022-12-29T15:25:22;4.97;;;1.90;;
26223;SDS011;14820;48.682;8.890;2022-12-29T15:27:54;4.88;;;2.03;;
26223;SDS011;14820;48.682;8.890;2022-12-29T15:30:29;5.22;;;2.00;;
26223;SDS011;14820;48.682;8.890;2022-12-29T15:32:55;3.45;;;1.88;;
26223;SDS011;14820;48.682;8.890;2022-12-29T15:35:25;5.10;;;1.85;;
26223;SDS011;14820;48.682;8.890;2022-12-29T15:40:27;5.97;;;2.17;;
26223;SDS011;14820;48.682;8.890;2022-12-29T15:43:07;6.00;;;2.45;;
26223;SDS011;14820;48.682;8.890;2022-12-29T15:45:35;5.75;;;2.50;;
26223;SDS011;14820;48.682;8.890;2022-12-29T15:48:01;10.07;;;4.53;;
26223;SDS011;14820;48.682;8.890;2022-12-29T15:50:33;13.70;;;8.00;;
26223;SDS011;14820;48.682;8.890;2022-12-29T15:53:00;8.48;;;3.22;;
26223;SDS011;14820;48.682;8.890;2022-12-29T15:55:34;3.05;;;1.80;;
26223;SDS011;14820;48.682;8.890;2022-12-29T16:00:34;2.70;;;1.20;;
26223;SDS011;14820;48.682;8.890;2022-12-29T16:03:04;3.60;;;1.25;;
26223;SDS011;14820;48.682;8.890;2022-12-29T16:05:34;1.60;;;1.15;;
26223;SDS011;14820;48.682;8.890;2022-12-29T16:08:01;1.25;;;0.90;;
26223;SDS011;14820;48.682;8.890;2022-12-29T16:10:38;2.88;;;1.48;;
26223;SDS011;14820;48.682;8.890;2022-12-29T16:13:22;2.28;;;1.42;;
26223;SDS011;14820;48.682;8.890;2022-12-29T16:15:55;2.28;;;1.33;;
26223;SDS011;14820;48.682;8.890;2022-12-29T16:18:27;4.32;;;3.38;;
26223;SDS011;14820;48.682;8.890;2022-12-29T16:21:04;7.93;;;4.68;;
26223;SDS011;14820;48.682;8.890;2022-12-29T16:23:31;7.75;;;4.85;;
26223;SDS011;14820;48.682;8.890;2022-12-29T16:25:58;8.50;;;4.82;;
26223;SDS011;14820;48.682;8.890;2022-12-29T16:28:35;8.32;;;5.35;;
26223;SDS011;14820;48.682;8.890;2022-12-29T16:31:14;7.00;;;4.10;;
26223;SDS011;14820;48.682;8.890;2022-12-29T16:33:45;6.78;;;4.38;;
26223;SDS011;14820;48.682;8.890;2022-12-29T16:41:47;9.73;;;3.50;;
26223;SDS011;14820;48.682;8.890;2022-12-29T16:49:36;3.50;;;2.10;;
26223;SDS011;14820;48.682;8.890;2022-12-29T16:54:58;8.30;;;5.35;;
26223;SDS011;14820;48.682;8.890;2022-12-29T16:57:28;18.92;;;10.68;;
26223;SDS011;14820;48.682;8.890;2022-12-29T17:00:00;30.60;;;15.55;;
26223;SDS011;14820;48.682;8.890;2022-12-29T17:02:30;28.52;;;14.45;;
26223;SDS011;14820;48.682;8.890;2022-12-29T17:04:57;26.45;;;12.77;;
26223;SDS011;14820;48.682;8.890;2022-12-29T17:07:24;17.83;;;8.75;;
26223;SDS011;14820;48.682;8.890;2022-12-29T17:09:52;12.15;;;6.80;;
26223;SDS011;14820;48.682;8.890;2022-12-29T17:12:22;16.88;;;9.38;;
26223;SDS011;14820;48.682;8.890;2022-12-29T17:14:56;12.70;;;7.63;;
26223;SDS011;14820;48.682;8.890;2022-12-29T17:17:32;10.73;;;6.55;;
26223;SDS011;14820;48.682;8.890;2022-12-29T17:20:16;13.15;;;4.60;;
26223;SDS011;14820;48.682;8.890;2022-12-29T17:22:45;6.85;;;4.20;;
26223;SDS011;14820;48.682;8.890;2022-12-29T17:25:12;6.05;;;4.00;;
26223;SDS011;14820;48.682;8.890;2022-12-29T17:30:12;8.70;;;4.30;;
26223;SDS011;14820;48.682;8.890;2022-12-29T17:32:43;7.40;;;3.92;;
26223;SDS011;14820;48.682;8.890;2022-12-29T17:35:16;5.75;;;3.53;;
26223;SDS011;14820;48.682;8.890;2022-12-29T17:37:43;6.07;;;3.80;;
26223;SDS011;14820;48.682;8.890;2022-12-29T17:40:18;8.20;;;5.45;;
26223;SDS011;14820;48.682;8.890;2022-12-29T17:45:24;11.45;;;7.07;;
26223;SDS011;14820;48.682;8.890;2022-12-29T17:47:52;14.90;;;8.73;;
26223;SDS011;14820;48.682;8.890;2022-12-29T17:50:24;16.00;;;9.27;;
26223;SDS011;14820;48.682;8.890;2022-12-29T17:53:03;17.02;;;9.82;;